Aérodrome :







RETROUVEZ-NOUS SUR...

 
LOGIN :

S'inscrire | Disclaimer

   EN    FR    IT 

 









Légende :    VFR   VFR Marginal   IFR   IFR Intensif   IFR Très Intensif
Visi : 
Plafond : 
>= 8 km
>= 3000ft
5 à 8 km
1000 à 3000 ft
1500m à 5 km
500 à 1000 ft
800 à 1500m
200 à 500 ft
< 800m
< 200 ft
Symboles :   Orages  Brouillard  Fortes neiges  Fortes précipitations  Vent > 20 kt






- Altitude de l'aérodrome : 141 ft
- Code IATA : YQI


CYQI - Yarmouth

DERNIER METAR :
  • 151000Z 23017G28KT 6SM BR OVC017 09/07 A2923 RMK SC8 SLP900 DENSITY ALT 300FT

METARs EXPIRÉS :
  • 150900Z 22018G29KT 3SM BR OVC011 09/09 A2922 RMK SF8 SLP898 DENSITY ALT 300FT
  • 150800Z 22015G30KT 1SM BR VV002 11/11 A2922 RMK FG8 SLP897 DENSITY ALT 500FT

TAF AMD TAF CYQI
Valide du 15 à 08h jusqu'au 15 à 18h UTC


150827Z 1508/1518 21020G30KT 2SM -RA BR OVC002
TEMPO 1508/1512 6SM BR OVC012
BECMG 1510/1512 23025G40KT
FM151200 21022G32KT P6SM SCT008
TEMPO 1512/1514 5SM -DZ BR BKN008
FM151400 26025G40KT P6SM BKN030 RMK NXT FCST BY 151200Z



MET'MAP, la Météo Aéronautique d'un coup d'oeil ! - Copyright ORBIFLY Décembre 2007 - Disclaimer

ORBIFLY MET'MAP TEAM :

Programmation & Développement : Alexandra Zaïnal
Sur une idée originale de : Baudouin d'Aumeries
Assistance à la programmation : Marc-Olivier Méhu
Soutien technique & logistique : Manuel Goepfert

Contact : metmap@orbifly.com




SOURCES & CREDITS :

   NOAA